41.8°F
Current conditions from King Hill
Updated every 5 minutes
 
  Saturday October 25, 2014

Station Historical Data
Daily Summary for April 21, 2011 Units:  Metric    English   Both
« Previous Day
Next Day »
Daily Weekly Monthly Yearly Custom
  High: Low: Average:
Temperature: 5.9 °C 0.1 °C 2.2 °C
Dew Point: 1.3 °C -5.4 °C -2.9 °C
Humidity: 85% 61% 69%
Wind Speed: 29km/h 1.6km/h 13.4km/h
Wind Gust: 49.9km/h - -
Wind- - WNW
Pressure: 1026 hPa 1008 hPa -
Precipitation: 0.5 mm    
Historical Graphs
 
 
Tabular Data for April 21, 2011
Time Temperature Dew Point Pressure Wind Wind Speed Wind Gust Humidity Daily Rainfall
00:05 5.9 °C 1.3 °C 1008.4 hPa WSW 14.5 km/h 27.4 km/h 72% 0 mm
00:10 5.8 °C 1.1 °C 1008.4 hPa WSW 12.9 km/h 29 km/h 72% 0 mm
00:15 5.7 °C 1 °C 1008.4 hPa West 16.1 km/h 37 km/h 72% 0 mm
00:20 5.6 °C 0.9 °C 1008.4 hPa West 14.5 km/h 37 km/h 72% 0 mm
00:25 5.6 °C 0.7 °C 1008.4 hPa WSW 17.7 km/h 35.4 km/h 71% 0 mm
00:30 5.4 °C 0.6 °C 1008.4 hPa WSW 12.9 km/h 35.4 km/h 71% 0 mm
00:40 5.3 °C 0.5 °C 1008.4 hPa WSW 11.3 km/h 27.4 km/h 71% 0 mm
00:44 5.4 °C 0.6 °C 1008.4 hPa WSW 14.5 km/h 27.4 km/h 71% 0 mm
00:50 5.3 °C 0.5 °C 1008.4 hPa WSW 9.7 km/h 27.4 km/h 71% 0 mm
00:55 5.3 °C 0.5 °C 1008.4 hPa WSW 9.7 km/h 19.3 km/h 71% 0 mm
00:59 5.3 °C 0.3 °C 1008.4 hPa WSW 16.1 km/h 29 km/h 70% 0 mm
01:05 5.3 °C 0.1 °C 1008.4 hPa WSW 12.9 km/h 29 km/h 69% 0 mm
01:09 5.3 °C 0.3 °C 1008.4 hPa SW 16.1 km/h 24.1 km/h 70% 0 mm
01:15 5.3 °C 0.1 °C 1008.4 hPa WSW 14.5 km/h 27.4 km/h 69% 0 mm
01:19 5.2 °C -0.1 °C 1008.4 hPa WSW 9.7 km/h 27.4 km/h 69% 0 mm
01:25 5.1 °C -0.1 °C 1008.4 hPa WSW 12.9 km/h 30.6 km/h 69% 0.3 mm
01:30 5.2 °C -0.3 °C 1008.4 hPa SW 16.1 km/h 30.6 km/h 68% 0.3 mm
01:34 5.1 °C -0.3 °C 1008.4 hPa WSW 14.5 km/h 30.6 km/h 68% 0.3 mm
01:40 5.1 °C -0.3 °C 1008.4 hPa WSW 14.5 km/h 27.4 km/h 68% 0.3 mm
01:45 5.1 °C -0.4 °C 1008.4 hPa WSW 19.3 km/h 32.2 km/h 68% 0.3 mm
01:50 5.1 °C -0.6 °C 1008 hPa WSW 16.1 km/h 32.2 km/h 67% 0.3 mm
01:55 5 °C -0.6 °C 1008 hPa WSW 14.5 km/h 30.6 km/h 67% 0.3 mm
02:04 4.9 °C -0.5 °C 1008 hPa WSW 11.3 km/h 25.7 km/h 68% 0.3 mm
02:10 4.9 °C -0.7 °C 1008 hPa WSW 14.5 km/h 24.1 km/h 67% 0.3 mm
02:14 4.8 °C -0.4 °C 1008 hPa West 11.3 km/h 24.1 km/h 69% 0.3 mm
02:20 4.8 °C -0.4 °C 1008.4 hPa WSW 12.9 km/h 32.2 km/h 69% 0.3 mm
02:25 4.8 °C -0.8 °C 1008 hPa West 16.1 km/h 33.8 km/h 67% 0.3 mm
02:30 4.7 °C -0.9 °C 1008 hPa West 14.5 km/h 33.8 km/h 67% 0.3 mm
02:35 4.7 °C -1.2 °C 1008 hPa West 12.9 km/h 27.4 km/h 66% 0.3 mm
02:40 4.6 °C -1.2 °C 1008 hPa West 11.3 km/h 29 km/h 66% 0.3 mm
02:45 4.5 °C -0.9 °C 1008 hPa WSW 11.3 km/h 29 km/h 68% 0.3 mm
02:50 4.5 °C -1.5 °C 1008 hPa WSW 17.7 km/h 33.8 km/h 65% 0.3 mm
02:55 4.4 °C -1.8 °C 1008 hPa WSW 19.3 km/h 35.4 km/h 64% 0.3 mm
03:00 4.3 °C -1.9 °C 1008 hPa WSW 19.3 km/h 35.4 km/h 64% 0.3 mm
03:05 4.1 °C -1.9 °C 1008.4 hPa West 19.3 km/h 35.4 km/h 65% 0.3 mm
03:09 4 °C -2 °C 1008.4 hPa WSW 14.5 km/h 40.2 km/h 65% 0.3 mm
03:15 3.9 °C -1.8 °C 1008.4 hPa West 12.9 km/h 40.2 km/h 66% 0.3 mm
03:19 3.8 °C -1.9 °C 1008 hPa West 14.5 km/h 30.6 km/h 66% 0.3 mm
03:25 3.7 °C -1.6 °C 1008.4 hPa West 12.9 km/h 27.4 km/h 68% 0.3 mm
03:30 3.7 °C -1.8 °C 1008.4 hPa West 14.5 km/h 30.6 km/h 67% 0.3 mm
03:35 3.7 °C -1.9 °C 1008.4 hPa West 19.3 km/h 30.6 km/h 67% 0.3 mm
03:40 3.7 °C -1.8 °C 1008.4 hPa West 16.1 km/h 30.6 km/h 67% 0.3 mm
03:45 3.7 °C -2.1 °C 1008.7 hPa West 24.1 km/h 40.2 km/h 66% 0.3 mm
03:50 3.6 °C -1.8 °C 1009 hPa West 24.1 km/h 40.2 km/h 68% 0.3 mm
03:55 2.9 °C -1.3 °C 1009 hPa WNW 24.1 km/h 40.2 km/h 74% 0.3 mm
03:59 2.7 °C -1.5 °C 1009 hPa West 20.9 km/h 40.2 km/h 74% 0.3 mm
04:05 2.5 °C -1.5 °C 1009 hPa West 14.5 km/h 35.4 km/h 75% 0.3 mm
04:10 2.4 °C -1.9 °C 1009 hPa West 17.7 km/h 33.8 km/h 73% 0.3 mm
04:14 2.4 °C -2.3 °C 1009 hPa West 19.3 km/h 33.8 km/h 71% 0.3 mm
04:20 2.4 °C -2.7 °C 1009.4 hPa West 16.1 km/h 30.6 km/h 69% 0.3 mm
04:25 2.3 °C -2.9 °C 1009.4 hPa WNW 16.1 km/h 33.8 km/h 68% 0.3 mm
04:29 2.3 °C -3.2 °C 1009.4 hPa West 16.1 km/h 35.4 km/h 67% 0.3 mm
04:35 2.3 °C -3.4 °C 1009.4 hPa WNW 19.3 km/h 38.6 km/h 66% 0.3 mm
04:39 2.3 °C -3.6 °C 1009.4 hPa West 29 km/h 49.9 km/h 65% 0.3 mm
04:45 2.3 °C -3.6 °C 1009.4 hPa West 20.9 km/h 49.9 km/h 65% 0.3 mm
04:50 2.2 °C -3.9 °C 1009.7 hPa West 16.1 km/h 37 km/h 64% 0.3 mm
04:54 2.2 °C -3.9 °C 1009.7 hPa West 14.5 km/h 30.6 km/h 64% 0.3 mm
05:00 2.1 °C -3.6 °C 1009.7 hPa WNW 11.3 km/h 30.6 km/h 66% 0.3 mm
05:05 2 °C -4.1 °C 1009.7 hPa West 16.1 km/h 25.7 km/h 64% 0.3 mm
05:10 2 °C -4.1 °C 1009.7 hPa West 17.7 km/h 33.8 km/h 64% 0.3 mm
05:15 2 °C -4.1 °C 1009.7 hPa WSW 12.9 km/h 33.8 km/h 64% 0.3 mm
05:19 2 °C -4.1 °C 1009.7 hPa West 19.3 km/h 37 km/h 64% 0.3 mm
05:25 2 °C -4.1 °C 1009.7 hPa West 17.7 km/h 37 km/h 64% 0.3 mm
05:29 1.9 °C -3.9 °C 1010 hPa West 16.1 km/h 30.6 km/h 65% 0.3 mm
05:35 1.9 °C -3.9 °C 1010 hPa West 12.9 km/h 30.6 km/h 65% 0.3 mm
05:40 1.9 °C -3.9 °C 1010 hPa WSW 12.9 km/h 30.6 km/h 65% 0.3 mm
05:45 1.9 °C -4.2 °C 1010 hPa West 16.1 km/h 27.4 km/h 64% 0.3 mm
05:50 1.9 °C -4.2 °C 1010 hPa West 14.5 km/h 29 km/h 64% 0.3 mm
05:54 1.9 °C -4.2 °C 1010 hPa West 12.9 km/h 33.8 km/h 64% 0.3 mm
06:00 1.9 °C -4 °C 1010 hPa West 11.3 km/h 33.8 km/h 65% 0.3 mm
06:04 1.9 °C -4.2 °C 1010 hPa WSW 14.5 km/h 29 km/h 64% 0.3 mm
06:09 1.9 °C -4.4 °C 1010 hPa West 14.5 km/h 30.6 km/h 63% 0.3 mm
06:15 1.9 °C -4.4 °C 1010 hPa WSW 14.5 km/h 30.6 km/h 63% 0.3 mm
06:19 1.9 °C -4.2 °C 1010 hPa WSW 12.9 km/h 25.7 km/h 64% 0.3 mm
06:25 1.8 °C -4.4 °C 1010.4 hPa West 14.5 km/h 24.1 km/h 63% 0.3 mm
06:30 1.8 °C -4.3 °C 1010.4 hPa West 6.4 km/h 24.1 km/h 64% 0.3 mm
06:34 1.8 °C -4.4 °C 1010.4 hPa West 11.3 km/h 24.1 km/h 63% 0.3 mm
06:39 1.8 °C -4.4 °C 1010.4 hPa WSW 12.9 km/h 24.1 km/h 63% 0.3 mm
06:45 1.8 °C -4.4 °C 1010.7 hPa West 8 km/h 20.9 km/h 63% 0.3 mm
06:49 1.8 °C -4.5 °C 1010.7 hPa WSW 11.3 km/h 19.3 km/h 63% 0.3 mm
06:54 1.8 °C -4.4 °C 1010.7 hPa WSW 14.5 km/h 25.7 km/h 63% 0.3 mm
06:59 1.8 °C -4.3 °C 1010.7 hPa WSW 8 km/h 25.7 km/h 64% 0.3 mm
07:05 1.8 °C -4.4 °C 1010.7 hPa West 11.3 km/h 24.1 km/h 63% 0.3 mm
07:09 1.8 °C -4.3 °C 1010.7 hPa WSW 9.7 km/h 24.1 km/h 64% 0.3 mm
07:14 1.8 °C -4.3 °C 1011.1 hPa West 11.3 km/h 20.9 km/h 64% 0.3 mm
07:20 1.8 °C -4.3 °C 1011.1 hPa WNW 9.7 km/h 19.3 km/h 64% 0.3 mm
07:24 1.8 °C -4.3 °C 1011.1 hPa WNW 14.5 km/h 27.4 km/h 64% 0.3 mm
07:29 1.7 °C -4.2 °C 1010.7 hPa WSW 11.3 km/h 27.4 km/h 65% 0.3 mm
07:34 1.7 °C -4.3 °C 1010.7 hPa West 12.9 km/h 24.1 km/h 64% 0.3 mm
07:40 1.8 °C -4.1 °C 1010.7 hPa West 12.9 km/h 27.4 km/h 65% 0.3 mm
07:44 1.8 °C -4.3 °C 1010.7 hPa West 17.7 km/h 33.8 km/h 64% 0.3 mm
07:50 1.9 °C -4.2 °C 1010.7 hPa West 14.5 km/h 33.8 km/h 64% 0.3 mm
07:54 1.9 °C -4.3 °C 1011.1 hPa West 17.7 km/h 32.2 km/h 63% 0.3 mm
07:59 1.9 °C -3.9 °C 1011.1 hPa WNW 6.4 km/h 29 km/h 65% 0.3 mm
08:04 1.9 °C -3.9 °C 1011.1 hPa West 11.3 km/h 27.4 km/h 65% 0.3 mm
08:10 1.8 °C -3.8 °C 1011.4 hPa NW 16.1 km/h 27.4 km/h 66% 0.3 mm
08:14 1.6 °C -3.7 °C 1011.7 hPa WNW 16.1 km/h 30.6 km/h 68% 0.3 mm
08:20 1.3 °C -3.6 °C 1011.7 hPa WNW 16.1 km/h 37 km/h 70% 0.3 mm
08:24 1.2 °C -3.3 °C 1011.7 hPa WNW 12.9 km/h 37 km/h 72% 0.3 mm
08:30 1.1 °C -3.6 °C 1012.1 hPa WNW 14.5 km/h 29 km/h 71% 0.3 mm
08:35 1.2 °C -3.5 °C 1012.1 hPa WNW 16.1 km/h 29 km/h 71% 0.3 mm
08:39 1.2 °C -3.7 °C 1012.1 hPa West 8 km/h 29 km/h 70% 0.3 mm
08:45 1.3 °C -3.3 °C 1012.1 hPa West 16.1 km/h 29 km/h 71% 0.3 mm
08:49 1.3 °C -3.6 °C 1012.1 hPa WNW 12.9 km/h 29 km/h 70% 0.3 mm
08:55 1.4 °C -3.5 °C 1012.1 hPa NW 8 km/h 29 km/h 70% 0.3 mm
08:59 1.5 °C -3.8 °C 1012.1 hPa WNW 11.3 km/h 20.9 km/h 68% 0.3 mm
09:04 1.5 °C -3.9 °C 1012.4 hPa WNW 16.1 km/h 32.2 km/h 67% 0.3 mm
09:10 1.6 °C -3.9 °C 1012.4 hPa WNW 12.9 km/h 32.2 km/h 67% 0.3 mm
09:14 1.7 °C -4.6 °C 1012.4 hPa NW 12.9 km/h 25.7 km/h 63% 0.3 mm
09:20 1.6 °C -4.9 °C 1012.4 hPa WNW 16.1 km/h 30.6 km/h 62% 0.3 mm
09:24 1.7 °C -4.6 °C 1012.4 hPa WNW 16.1 km/h 30.6 km/h 63% 0.3 mm
09:29 1.6 °C -5.2 °C 1012.8 hPa West 20.9 km/h 35.4 km/h 61% 0.3 mm
09:34 1.3 °C -4.7 °C 1012.8 hPa West 14.5 km/h 35.4 km/h 64% 0.3 mm
09:39 1.3 °C -4.5 °C 1013.1 hPa WNW 16.1 km/h 32.2 km/h 65% 0.3 mm
09:45 0.9 °C -4.5 °C 1013.1 hPa West 17.7 km/h 35.4 km/h 67% 0.3 mm
09:49 0.8 °C -4.6 °C 1013.1 hPa West 17.7 km/h 35.4 km/h 67% 0.3 mm
09:55 0.9 °C -4.3 °C 1013.1 hPa NW 16.1 km/h 32.2 km/h 68% 0.3 mm
10:04 0.9 °C -4.7 °C 1013.4 hPa WNW 22.5 km/h 38.6 km/h 66% 0.3 mm
10:10 0.8 °C -4.6 °C 1013.4 hPa NW 17.7 km/h 38.6 km/h 67% 0.3 mm
10:14 0.8 °C -4.7 °C 1013.4 hPa WNW 22.5 km/h 38.6 km/h 67% 0.3 mm
10:19 0.7 °C -4.8 °C 1013.4 hPa WNW 20.9 km/h 38.6 km/h 67% 0.3 mm
10:24 0.7 °C -4.5 °C 1013.8 hPa West 22.5 km/h 35.4 km/h 68% 0.3 mm
10:30 0.6 °C -4.4 °C 1013.8 hPa West 24.1 km/h 38.6 km/h 69% 0.3 mm
10:34 0.6 °C -4.5 °C 1013.8 hPa WNW 14.5 km/h 40.2 km/h 69% 0.3 mm
10:39 0.7 °C -4.7 °C 1013.8 hPa West 16.1 km/h 40.2 km/h 67% 0.3 mm
10:44 0.8 °C -4.4 °C 1013.8 hPa West 14.5 km/h 37 km/h 68% 0.3 mm
10:50 1.1 °C -4.4 °C 1014.1 hPa WNW 19.3 km/h 30.6 km/h 67% 0.3 mm
10:54 1.3 °C -4.3 °C 1014.1 hPa West 14.5 km/h 30.6 km/h 66% 0.3 mm
11:00 1.8 °C -3.7 °C 1014.1 hPa WNW 9.7 km/h 29 km/h 67% 0.3 mm
11:04 1.8 °C -4.3 °C 1014.4 hPa WNW 20.9 km/h 30.6 km/h 64% 0.3 mm
11:10 1.7 °C -4.6 °C 1014.4 hPa WNW 22.5 km/h 37 km/h 63% 0.3 mm
11:14 1.9 °C -4 °C 1014.4 hPa WNW 11.3 km/h 37 km/h 65% 0.3 mm
11:20 2 °C -4.3 °C 1014.4 hPa West 9.7 km/h 29 km/h 63% 0.3 mm
11:24 1.7 °C -4.8 °C 1014.8 hPa West 12.9 km/h 24.1 km/h 62% 0.3 mm
11:30 1.4 °C -4.9 °C 1014.8 hPa West 16.1 km/h 35.4 km/h 63% 0.3 mm
11:34 1.3 °C -4.7 °C 1014.8 hPa West 8 km/h 35.4 km/h 64% 0.3 mm
11:39 1.6 °C -4.9 °C 1015.1 hPa WNW 22.5 km/h 30.6 km/h 62% 0.3 mm
11:45 1.3 °C -5.4 °C 1015.5 hPa WNW 24.1 km/h 41.8 km/h 61% 0.3 mm
11:49 1.3 °C -5.4 °C 1015.1 hPa NW 25.7 km/h 45.1 km/h 61% 0.3 mm
11:55 1.3 °C -5.4 °C 1015.5 hPa NW 16.1 km/h 45.1 km/h 61% 0.3 mm
12:05 1.4 °C -4.8 °C 1015.5 hPa NW 14.5 km/h 35.4 km/h 63% 0.3 mm
12:09 1.3 °C -4.7 °C 1015.5 hPa WNW 17.7 km/h 35.4 km/h 64% 0.3 mm
12:14 1.4 °C -4.3 °C 1015.8 hPa NW 11.3 km/h 29 km/h 66% 0.3 mm
12:19 1.4 °C -4.4 °C 1015.8 hPa WNW 9.7 km/h 30.6 km/h 65% 0.3 mm
12:24 1.4 °C -4 °C 1016.1 hPa NW 9.7 km/h 30.6 km/h 67% 0.3 mm
12:29 1.2 °C -4.4 °C 1016.1 hPa NW 9.7 km/h 35.4 km/h 66% 0.3 mm
12:34 1.2 °C -4.6 °C 1016.1 hPa NW 20.9 km/h 35.4 km/h 65% 0.3 mm
12:39 1.6 °C -4.3 °C 1016.1 hPa NW 9.7 km/h 37 km/h 65% 0.3 mm
12:45 1.8 °C -4.9 °C 1016.1 hPa NW 14.5 km/h 37 km/h 61% 0.3 mm
12:49 0.9 °C -4.7 °C 1016.5 hPa WNW 20.9 km/h 35.4 km/h 66% 0.3 mm
12:55 0.3 °C -3.8 °C 1016.5 hPa NW 12.9 km/h 35.4 km/h 74% 0.3 mm
12:59 0.4 °C -3.7 °C 1016.5 hPa WNW 17.7 km/h 30.6 km/h 74% 0.3 mm
13:05 0.8 °C -3.4 °C 1016.5 hPa WNW 19.3 km/h 30.6 km/h 73% 0.3 mm
13:09 1.3 °C -3.2 °C 1016.8 hPa NW 14.5 km/h 30.6 km/h 72% 0.3 mm
13:15 1.1 °C -4 °C 1016.8 hPa WNW 22.5 km/h 35.4 km/h 69% 0.3 mm
13:19 0.9 °C -3.6 °C 1016.8 hPa NW 14.5 km/h 35.4 km/h 72% 0.3 mm
13:25 1.1 °C -3.2 °C 1016.8 hPa NW 6.4 km/h 32.2 km/h 73% 0.3 mm
13:29 0.9 °C -3.7 °C 1017.2 hPa WNW 14.5 km/h 25.7 km/h 71% 0.3 mm
13:34 0.6 °C -3.7 °C 1017.2 hPa WNW 16.1 km/h 29 km/h 73% 0.3 mm
13:39 0.2 °C -3.7 °C 1017.5 hPa NW 12.9 km/h 29 km/h 75% 0.3 mm
13:44 0.2 °C -3.3 °C 1017.5 hPa WNW 14.5 km/h 25.7 km/h 77% 0.3 mm
13:50 0.4 °C -3.4 °C 1017.5 hPa WNW 11.3 km/h 27.4 km/h 75% 0.3 mm
13:54 0.8 °C -3.7 °C 1017.5 hPa WNW 9.7 km/h 27.4 km/h 72% 0.3 mm
13:59 0.9 °C -3.9 °C 1017.5 hPa NW 14.5 km/h 29 km/h 70% 0.3 mm
14:04 0.9 °C -3.9 °C 1017.8 hPa WNW 17.7 km/h 33.8 km/h 70% 0.3 mm
14:09 1.1 °C -3.6 °C 1017.8 hPa NNW 11.3 km/h 35.4 km/h 71% 0.3 mm
14:14 1.3 °C -3.7 °C 1017.8 hPa WNW 16.1 km/h 38.6 km/h 69% 0.3 mm
14:19 1.4 °C -3.5 °C 1017.8 hPa NW 12.9 km/h 38.6 km/h 70% 0.3 mm
14:24 1.3 °C -4.1 °C 1018.2 hPa NW 14.5 km/h 37 km/h 67% 0.3 mm
14:30 1.3 °C -3.7 °C 1018.2 hPa NW 12.9 km/h 37 km/h 69% 0.3 mm
14:34 1.1 °C -3.6 °C 1018.2 hPa WNW 16.1 km/h 38.6 km/h 71% 0.3 mm
14:40 0.9 °C -3.6 °C 1018.5 hPa NNW 19.3 km/h 38.6 km/h 72% 0.3 mm
14:44 0.8 °C -2.9 °C 1018.5 hPa NW 12.9 km/h 32.2 km/h 76% 0.3 mm
14:49 1 °C -2.8 °C 1018.5 hPa WNW 11.3 km/h 30.6 km/h 76% 0.3 mm
14:54 1.3 °C -2.8 °C 1018.5 hPa WNW 16.1 km/h 30.6 km/h 74% 0.3 mm
14:59 1.6 °C -2.9 °C 1018.5 hPa NW 14.5 km/h 30.6 km/h 72% 0.3 mm
15:04 1.7 °C -3 °C 1018.8 hPa NW 22.5 km/h 30.6 km/h 71% 0.3 mm
15:10 1.6 °C -3.3 °C 1018.8 hPa NW 19.3 km/h 35.4 km/h 70% 0.3 mm
15:14 1.3 °C -3.2 °C 1018.8 hPa NW 14.5 km/h 35.4 km/h 72% 0.3 mm
15:19 1.3 °C -3.2 °C 1018.8 hPa WNW 16.1 km/h 32.2 km/h 72% 0.3 mm
15:24 1.8 °C -3.1 °C 1019.2 hPa NW 19.3 km/h 33.8 km/h 70% 0.3 mm
15:29 2.2 °C -2.7 °C 1018.8 hPa NW 8 km/h 33.8 km/h 70% 0.3 mm
15:35 2.4 °C -3.1 °C 1019.2 hPa NW 12.9 km/h 32.2 km/h 67% 0.3 mm
15:39 2.4 °C -2.8 °C 1019.2 hPa NNW 8 km/h 32.2 km/h 68% 0.5 mm
15:44 2.7 °C -3.1 °C 1019.2 hPa NW 16.1 km/h 24.1 km/h 66% 0.5 mm
15:49 2.9 °C -3.3 °C 1019.2 hPa NW 17.7 km/h 41.8 km/h 64% 0.5 mm
15:54 3 °C -3.2 °C 1019.2 hPa NW 12.9 km/h 41.8 km/h 64% 0.5 mm
15:59 3.1 °C -2.8 °C 1019.5 hPa NW 11.3 km/h 35.4 km/h 65% 0.5 mm
16:04 3.2 °C -2.9 °C 1019.5 hPa WNW 17.7 km/h 32.2 km/h 64% 0.5 mm
16:10 3.1 °C -3.1 °C 1019.5 hPa WNW 16.1 km/h 32.2 km/h 64% 0.5 mm
16:14 2.9 °C -2.8 °C 1019.9 hPa NW 14.5 km/h 35.4 km/h 66% 0.5 mm
16:19 2.8 °C -3.1 °C 1020.2 hPa NW 22.5 km/h 35.4 km/h 65% 0.5 mm
16:24 2.7 °C -3.2 °C 1020.2 hPa NW 14.5 km/h 32.2 km/h 65% 0.5 mm
16:30 2.5 °C -3.2 °C 1020.5 hPa WNW 17.7 km/h 30.6 km/h 66% 0.5 mm
16:35 2.5 °C -3.2 °C 1020.5 hPa NW 25.7 km/h 40.2 km/h 66% 0.5 mm
16:40 2.6 °C -2.7 °C 1020.5 hPa NW 17.7 km/h 40.2 km/h 68% 0.5 mm
16:45 2.7 °C -2.7 °C 1020.5 hPa NNW 9.7 km/h 29 km/h 68% 0.5 mm
16:50 2.7 °C -2.8 °C 1020.5 hPa WNW 14.5 km/h 27.4 km/h 67% 0.5 mm
16:55 2.5 °C -3.4 °C 1020.5 hPa WNW 16.1 km/h 27.4 km/h 65% 0.5 mm
17:00 2.4 °C -3.3 °C 1020.9 hPa NW 19.3 km/h 33.8 km/h 66% 0.5 mm
17:05 2.4 °C -2.9 °C 1020.9 hPa WNW 11.3 km/h 33.8 km/h 68% 0.5 mm
17:10 2.3 °C -3 °C 1021.2 hPa WNW 19.3 km/h 33.8 km/h 68% 0.5 mm
17:20 2.3 °C -3.2 °C 1021.2 hPa WNW 11.3 km/h 27.4 km/h 67% 0.5 mm
17:25 2.4 °C -3.1 °C 1021.2 hPa WNW 11.3 km/h 32.2 km/h 67% 0.5 mm
17:30 2.5 °C -3.2 °C 1021.6 hPa NW 16.1 km/h 32.2 km/h 66% 0.5 mm
17:40 2.7 °C -3 °C 1021.6 hPa NW 19.3 km/h 32.2 km/h 66% 0.5 mm
17:45 2.8 °C -2.7 °C 1021.6 hPa WNW 11.3 km/h 32.2 km/h 67% 0.5 mm
17:50 3 °C -2.3 °C 1021.9 hPa WNW 16.1 km/h 32.2 km/h 68% 0.5 mm
18:00 2.9 °C -3 °C 1021.9 hPa WNW 17.7 km/h 29 km/h 65% 0.5 mm
18:05 2.8 °C -3.3 °C 1021.9 hPa WNW 20.9 km/h 35.4 km/h 64% 0.5 mm
18:10 2.8 °C -3.1 °C 1022.2 hPa NW 17.7 km/h 35.4 km/h 65% 0.5 mm
18:20 3 °C -2.9 °C 1022.2 hPa WNW 20.9 km/h 32.2 km/h 65% 0.5 mm
18:25 2.9 °C -2.8 °C 1022.2 hPa NW 16.1 km/h 32.2 km/h 66% 0.5 mm
18:30 3.1 °C -2.7 °C 1022.2 hPa NW 16.1 km/h 33.8 km/h 66% 0.5 mm
18:35 3.1 °C -2.9 °C 1022.2 hPa WNW 24.1 km/h 33.8 km/h 65% 0.5 mm
18:40 2.9 °C -2.8 °C 1022.6 hPa WNW 20.9 km/h 35.4 km/h 66% 0.5 mm
18:45 2.9 °C -2.6 °C 1022.6 hPa NW 11.3 km/h 35.4 km/h 67% 0.5 mm
18:50 2.9 °C -2.6 °C 1022.6 hPa NW 12.9 km/h 27.4 km/h 67% 0.5 mm
18:55 2.9 °C -2.6 °C 1022.9 hPa NW 11.3 km/h 27.4 km/h 67% 0.5 mm
19:00 2.9 °C -2.6 °C 1022.9 hPa NW 17.7 km/h 30.6 km/h 67% 0.5 mm
19:05 2.8 °C -2.7 °C 1023.2 hPa NNW 14.5 km/h 30.6 km/h 67% 0.5 mm
19:10 2.8 °C -2.6 °C 1023.2 hPa NNW 12.9 km/h 30.6 km/h 68% 0.5 mm
19:15 2.7 °C -2.3 °C 1023.6 hPa WNW 17.7 km/h 30.6 km/h 70% 0.5 mm
19:20 2.4 °C -2.1 °C 1023.6 hPa NW 16.1 km/h 27.4 km/h 72% 0.5 mm
19:25 2.3 °C -1.9 °C 1023.6 hPa NW 8 km/h 24.1 km/h 74% 0.5 mm
19:30 2.2 °C -1.9 °C 1023.6 hPa NNW 6.4 km/h 22.5 km/h 74% 0.5 mm
19:35 2.2 °C -1.9 °C 1023.6 hPa NW 11.3 km/h 24.1 km/h 74% 0.5 mm
19:40 2.2 °C -2 °C 1023.6 hPa NW 9.7 km/h 24.1 km/h 74% 0.5 mm
19:45 2.1 °C -2.1 °C 1023.6 hPa NW 6.4 km/h 24.1 km/h 74% 0.5 mm
19:50 2.2 °C -2 °C 1023.6 hPa NW 8 km/h 17.7 km/h 74% 0.5 mm
19:55 2.2 °C -2 °C 1023.9 hPa NW 3.2 km/h 17.7 km/h 74% 0.5 mm
20:00 2.2 °C -1.9 °C 1023.9 hPa NW 3.2 km/h 12.9 km/h 74% 0.5 mm
20:05 2.2 °C -1.9 °C 1023.9 hPa NW 4.8 km/h 12.9 km/h 74% 0.5 mm
20:10 2.2 °C -1.9 °C 1024.3 hPa NNW 8 km/h 22.5 km/h 74% 0.5 mm
20:15 2.3 °C -1.9 °C 1024.3 hPa NNW 4.8 km/h 22.5 km/h 74% 0.5 mm
20:20 2.3 °C -1.9 °C 1024.3 hPa NW 9.7 km/h 22.5 km/h 74% 0.5 mm
20:25 2.3 °C -1.9 °C 1024.6 hPa NNW 12.9 km/h 22.5 km/h 74% 0.5 mm
20:35 2.3 °C -1.7 °C 1024.6 hPa NW 9.7 km/h 17.7 km/h 75% 0.5 mm
20:40 2.2 °C -1.6 °C 1024.3 hPa NNW 8 km/h 19.3 km/h 76% 0.5 mm
20:45 2.1 °C -1.6 °C 1024.6 hPa NW 8 km/h 19.3 km/h 77% 0.5 mm
20:50 1.9 °C -1.7 °C 1024.6 hPa NW 6.4 km/h 14.5 km/h 77% 0.5 mm
20:55 1.9 °C -1.7 °C 1024.6 hPa NNW 4.8 km/h 14.5 km/h 77% 0.5 mm
21:00 1.8 °C -1.7 °C 1024.6 hPa NW 4.8 km/h 9.7 km/h 78% 0.5 mm
21:05 1.6 °C -1.8 °C 1024.6 hPa Calm   9.7 km/h 78% 0.5 mm
21:10 1.6 °C -1.9 °C 1024.9 hPa NW 1.6 km/h 11.3 km/h 78% 0.5 mm
21:15 1.4 °C -1.8 °C 1024.9 hPa NW 6.4 km/h 12.9 km/h 79% 0.5 mm
21:20 1.3 °C -1.9 °C 1024.9 hPa NW 3.2 km/h 12.9 km/h 79% 0.5 mm
21:25 1.3 °C -1.9 °C 1024.9 hPa WNW 4.8 km/h 9.7 km/h 79% 0.5 mm
21:30 1.3 °C -1.9 °C 1025.3 hPa NW 4.8 km/h 9.7 km/h 79% 0.5 mm
21:35 1.3 °C -1.9 °C 1025.3 hPa NW 1.6 km/h 9.7 km/h 79% 0.5 mm
21:40 1.3 °C -1.9 °C 1025.3 hPa West 3.2 km/h 8 km/h 79% 0.5 mm
21:45 1.3 °C -1.8 °C 1025.3 hPa WNW 3.2 km/h 11.3 km/h 80% 0.5 mm
21:50 1.2 °C -2 °C 1025.6 hPa WNW 4.8 km/h 11.3 km/h 79% 0.5 mm
21:55 1.1 °C -2.2 °C 1025.6 hPa WNW 1.6 km/h 9.7 km/h 79% 0.5 mm
22:00 1 °C -1.2 °C 1025.6 hPa NW 1.6 km/h 8 km/h 85% 0.5 mm
22:05 1 °C -2.2 °C 1025.6 hPa NW 1.6 km/h 8 km/h 79% 0.5 mm
22:10 0.9 °C -2.3 °C 1025.6 hPa NW 1.6 km/h 6.4 km/h 79% 0.5 mm
22:15 0.7 °C -2.5 °C 1025.6 hPa NW 1.6 km/h 4.8 km/h 79% 0.5 mm
22:20 0.6 °C -2.5 °C 1025.6 hPa Calm   4.8 km/h 80% 0.5 mm
22:25 0.4 °C -2.7 °C 1025.6 hPa NW 1.6 km/h 4.8 km/h 80% 0.5 mm
22:30 0.2 °C -2.8 °C 1025.6 hPa Calm   4.8 km/h 80% 0.5 mm
22:35 0.1 °C -2.8 °C 1025.6 hPa Calm   3.2 km/h 81% 0.5 mm
22:40 0.2 °C -2.7 °C 1025.6 hPa West 1.6 km/h 6.4 km/h 81% 0.5 mm
22:45 0.1 °C -2.8 °C 1025.6 hPa WSW 1.6 km/h 6.4 km/h 81% 0.5 mm
22:50 0.1 °C -2.8 °C 1026 hPa Calm   4.8 km/h 81% 0.5 mm
22:55 0.1 °C -2.8 °C 1026 hPa WSW 1.6 km/h 4.8 km/h 81% 0.5 mm
23:00 0.1 °C -2.7 °C 1026 hPa SW 4.8 km/h 8 km/h 82% 0.5 mm
23:05 0.2 °C -2.7 °C 1026 hPa SW 4.8 km/h 9.7 km/h 81% 0.5 mm
23:10 0.2 °C -2.7 °C 1026 hPa SW 1.6 km/h 9.7 km/h 81% 0.5 mm
23:15 0.2 °C -2.7 °C 1026 hPa SW 1.6 km/h 6.4 km/h 81% 0.5 mm
23:20 0.2 °C -2.8 °C 1026 hPa SW 6.4 km/h 8 km/h 80% 0.5 mm
23:25 0.2 °C -2.8 °C 1026 hPa SW 3.2 km/h 8 km/h 80% 0.5 mm
23:30 0.2 °C -3.1 °C 1026 hPa Calm   6.4 km/h 79% 0.5 mm
23:35 0.1 °C -3.2 °C 1026 hPa Calm   6.4 km/h 79% 0.5 mm
23:40 0.1 °C -3.2 °C 1026 hPa WSW 3.2 km/h 8 km/h 79% 0.5 mm
23:45 0.1 °C -3.3 °C 1026 hPa West 3.2 km/h 9.7 km/h 78% 0.5 mm
23:50 0.1 °C -3.3 °C 1026 hPa West 3.2 km/h 9.7 km/h 78% 0.5 mm
23:55 0.2 °C -3.2 °C 1026 hPa West 3.2 km/h 6.4 km/h 78% 0.5 mm
Westford Weather
Compliments of Weather Underground

 
 
Current Radar Loop:

Copyright © WestfordWeather.net 2007-2014. All rights reserved.